Time;durP1;ratioP1;P1;durP2;ratioP2;P2;SDS_P1;SDS_P2;PMS_P1;PMS_P2;Temp;Humidity;BMP_temperature;BMP_pressure;BME280_temperature;BME280_humidity;BME280_pressure;Samples;Min_cycle;Max_cycle;Signal;HPM_P1;HPM_P2
2022/12/19 00:01:15;;;;;;;52.60;25.27;;;-1.50;99.90;;;;;;5002706;28;20199;-53
2022/12/19 00:03:42;;;;;;;55.43;24.47;;;-1.50;99.90;;;;;;5009645;28;20239;-51
2022/12/19 00:06:09;;;;;;;48.83;24.53;;;-1.50;99.90;;;;;;5011351;28;20259;-52
2022/12/19 00:08:36;;;;;;;50.77;25.83;;;-1.60;99.90;;;;;;5007351;28;20261;-51
2022/12/19 00:11:04;;;;;;;59.67;28.10;;;-1.60;99.90;;;;;;5010913;28;20620;-52
2022/12/19 00:13:31;;;;;;;55.17;26.60;;;-1.70;99.90;;;;;;5010280;28;20233;-51
2022/12/19 00:16:03;;;;;;;53.17;24.93;;;-1.70;99.90;;;;;;5003627;28;20201;-51
2022/12/19 00:18:29;;;;;;;54.43;27.10;;;-1.70;99.90;;;;;;5011625;28;20208;-52
2022/12/19 00:20:58;;;;;;;50.93;25.70;;;-1.70;99.90;;;;;;5011238;28;20208;-51
2022/12/19 00:23:27;;;;;;;47.80;24.20;;;-1.60;99.90;;;;;;5010311;28;20796;-53
2022/12/19 00:25:54;;;;;;;52.17;27.60;;;-1.60;99.90;;;;;;5010332;28;20632;-52
2022/12/19 00:28:21;;;;;;;59.33;25.60;;;-1.60;99.90;;;;;;5009558;28;20259;-51
2022/12/19 00:30:48;;;;;;;51.67;25.37;;;-1.60;99.90;;;;;;5006114;28;20200;-51
2022/12/19 00:33:17;;;;;;;49.87;25.83;;;-1.70;99.90;;;;;;5010016;28;20223;-51
2022/12/19 00:35:44;;;;;;;60.07;28.17;;;-1.70;99.90;;;;;;5009135;28;20248;-53
2022/12/19 00:38:11;;;;;;;55.73;27.07;;;-1.70;99.90;;;;;;5003976;28;20209;-51
2022/12/19 00:40:38;;;;;;;49.63;25.57;;;-1.60;99.90;;;;;;5010035;28;20204;-51
2022/12/19 00:43:04;;;;;;;48.77;24.03;;;-1.70;99.90;;;;;;5004117;28;20271;-52
2022/12/19 00:45:31;;;;;;;51.03;24.60;;;-1.60;99.90;;;;;;5011684;28;20213;-51
2022/12/19 00:47:58;;;;;;;55.97;26.67;;;-1.60;99.90;;;;;;4999513;28;20210;-51
2022/12/19 00:50:27;;;;;;;57.97;25.37;;;-1.50;99.90;;;;;;5011739;28;20675;-51
2022/12/19 00:52:54;;;;;;;49.47;25.03;;;-1.40;99.90;;;;;;5010914;28;20273;-51
2022/12/19 00:55:21;;;;;;;50.97;24.83;;;-1.40;99.90;;;;;;5008494;28;20255;-51
2022/12/19 00:57:48;;;;;;;47.03;24.07;;;-1.40;99.90;;;;;;5010284;28;20205;-51
2022/12/19 01:00:17;;;;;;;47.73;26.17;;;-1.40;99.90;;;;;;5012011;28;20205;-50
2022/12/19 01:02:44;;;;;;;48.37;25.63;;;-1.50;99.90;;;;;;5010915;28;20302;-50
2022/12/19 01:05:11;;;;;;;60.17;27.60;;;-1.40;99.90;;;;;;5008769;28;20201;-51
2022/12/19 01:07:39;;;;;;;50.13;24.13;;;-1.50;99.90;;;;;;5007243;28;20199;-51
2022/12/19 01:10:07;;;;;;;48.20;23.83;;;-1.50;99.90;;;;;;5011017;28;20209;-53
2022/12/19 01:12:46;;;;;;;56.20;24.43;;;-1.50;99.90;;;;;;5008436;28;20216;-53
2022/12/19 01:15:15;;;;;;;55.07;25.23;;;-1.50;99.90;;;;;;5006192;28;20273;-51
2022/12/19 01:17:42;;;;;;;54.27;28.20;;;-1.40;99.90;;;;;;5011018;28;20273;-50
2022/12/19 01:20:10;;;;;;;60.57;28.83;;;-1.40;99.90;;;;;;5010902;28;20203;-51
2022/12/19 01:22:38;;;;;;;62.90;28.60;;;-1.40;99.90;;;;;;5009272;28;20223;-51
2022/12/19 01:25:06;;;;;;;57.77;29.37;;;-1.40;99.90;;;;;;5010533;28;20951;-51
2022/12/19 01:27:33;;;;;;;64.83;29.37;;;-1.40;99.90;;;;;;5011078;28;20202;-51
2022/12/19 01:30:01;;;;;;;48.93;26.60;;;-1.40;99.90;;;;;;5009934;28;20259;-50
2022/12/19 01:32:28;;;;;;;56.17;26.73;;;-1.40;99.90;;;;;;5006699;28;20227;-51
2022/12/19 01:34:55;;;;;;;62.47;27.70;;;-1.40;99.90;;;;;;5010329;28;20209;-55
2022/12/19 01:37:22;;;;;;;63.73;30.97;;;-1.40;99.90;;;;;;5010393;28;20254;-52
2022/12/19 01:39:51;;;;;;;59.20;29.77;;;-1.40;99.90;;;;;;5008340;28;20667;-51
2022/12/19 01:42:20;;;;;;;64.37;30.50;;;-1.40;99.90;;;;;;5010914;28;20216;-51
2022/12/19 01:45:24;;;;;;;58.80;29.20;;;-1.40;99.90;;;;;;5008061;28;20213;-52
2022/12/19 01:47:54;;;;;;;70.27;30.70;;;-1.30;99.90;;;;;;4949701;29;20293;-52
2022/12/19 01:50:29;;;;;;;58.47;30.00;;;-1.30;99.90;;;;;;5001341;28;20209;-51
2022/12/19 01:52:58;;;;;;;63.83;28.83;;;-1.40;99.90;;;;;;5011260;28;20756;-51
2022/12/19 01:55:27;;;;;;;70.37;31.10;;;-1.30;99.90;;;;;;5009699;28;20223;-51
2022/12/19 01:57:55;;;;;;;61.33;29.47;;;-1.20;99.90;;;;;;5008724;28;20632;-51
2022/12/19 02:00:22;;;;;;;67.90;29.50;;;-1.20;99.90;;;;;;5010207;28;20257;-51
2022/12/19 02:02:54;;;;;;;67.77;29.93;;;-1.20;99.90;;;;;;5009232;28;20288;-51
2022/12/19 02:05:21;;;;;;;66.73;28.50;;;-1.30;99.90;;;;;;5012001;28;20205;-50
2022/12/19 02:07:49;;;;;;;64.13;27.77;;;-1.30;99.90;;;;;;5011401;28;20205;-51
2022/12/19 02:10:16;;;;;;;62.50;29.67;;;-1.30;99.90;;;;;;5010163;28;20263;-51
2022/12/19 02:12:46;;;;;;;65.10;29.93;;;-1.30;99.90;;;;;;5013289;28;20223;-50
2022/12/19 02:15:14;;;;;;;72.33;30.53;;;-1.30;99.90;;;;;;5013360;28;20207;-52
2022/12/19 02:17:54;;;;;;;76.70;30.53;;;-1.30;99.90;;;;;;5012430;28;20209;-51
2022/12/19 02:21:04;;;;;;;59.40;28.47;;;-1.30;99.90;;;;;;5008227;28;20259;-51
2022/12/19 02:23:56;;;;;;;71.13;29.83;;;-1.30;99.90;;;;;;5078618;23;20312;-50
2022/12/19 02:26:53;;;;;;;58.77;28.93;;;-1.20;99.90;;;;;;5066572;28;20210;-50
2022/12/19 02:29:50;;;;;;;72.27;30.77;;;-1.30;99.90;;;;;;5062580;28;20213;-50
2022/12/19 02:32:21;;;;;;;81.43;31.30;;;-1.30;99.90;;;;;;5046789;28;20288;-50
2022/12/19 02:34:56;;;;;;;58.33;28.17;;;-1.30;99.90;;;;;;5050011;28;20252;-50
2022/12/19 02:37:28;;;;;;;71.10;31.00;;;-1.40;99.90;;;;;;5048411;28;20194;-49
2022/12/19 02:39:59;;;;;;;70.40;29.47;;;-1.30;99.90;;;;;;5051561;28;20301;-50
2022/12/19 02:42:29;;;;;;;60.60;28.37;;;-1.30;99.90;;;;;;5052290;28;20271;-50
2022/12/19 02:45:00;;;;;;;56.37;26.47;;;-1.40;99.90;;;;;;5050045;28;20653;-50
2022/12/19 02:47:29;;;;;;;66.07;31.00;;;-1.30;99.90;;;;;;5050134;28;20233;-50
2022/12/19 02:49:56;;;;;;;69.37;31.10;;;-1.30;99.90;;;;;;5051428;28;20275;-50
2022/12/19 02:52:49;;;;;;;64.53;29.93;;;-1.40;99.90;;;;;;5052312;28;20214;-50
2022/12/19 02:55:20;;;;;;;67.33;31.80;;;-1.40;99.90;;;;;;5056910;28;20295;-50
2022/12/19 02:58:01;;;;;;;66.87;32.10;;;-1.40;99.90;;;;;;5051823;28;20673;-50
2022/12/19 03:00:28;;;;;;;66.20;31.53;;;-1.40;99.90;;;;;;5049315;28;20204;-50
2022/12/19 03:03:06;;;;;;;63.97;30.83;;;-1.30;99.90;;;;;;5051930;28;20212;-50
2022/12/19 03:05:42;;;;;;;65.47;29.70;;;-1.30;99.90;;;;;;5050864;28;20271;-50
2022/12/19 03:08:16;;;;;;;65.40;30.70;;;-1.30;99.90;;;;;;5052621;28;20562;-50
2022/12/19 03:10:47;;;;;;;57.13;27.47;;;-1.30;99.90;;;;;;5049253;28;20349;-49
2022/12/19 03:13:19;;;;;;;66.23;30.03;;;-1.30;99.90;;;;;;5045046;28;20743;-49
2022/12/19 03:15:46;;;;;;;65.00;29.87;;;-1.30;99.90;;;;;;5049273;28;20699;-50
2022/12/19 03:18:15;;;;;;;63.67;27.57;;;-1.30;99.90;;;;;;5051223;28;20208;-50
2022/12/19 03:20:47;;;;;;;63.00;30.80;;;-1.30;99.90;;;;;;5051149;28;20214;-50
2022/12/19 03:23:15;;;;;;;67.07;31.53;;;-1.30;99.90;;;;;;5050100;28;20230;-50
2022/12/19 03:25:47;;;;;;;71.50;30.07;;;-1.30;99.90;;;;;;5060652;28;20267;-50
2022/12/19 03:28:22;;;;;;;64.97;30.43;;;-1.30;99.90;;;;;;5051617;28;20252;-50
2022/12/19 03:30:50;;;;;;;64.13;29.10;;;-1.30;99.90;;;;;;5051138;28;20278;-50
2022/12/19 03:33:20;;;;;;;58.40;29.47;;;-1.20;99.90;;;;;;5050512;28;20307;-50
2022/12/19 03:35:50;;;;;;;58.67;29.33;;;-1.20;99.90;;;;;;5049775;28;20248;-50
2022/12/19 03:38:20;;;;;;;52.57;27.27;;;-1.10;99.90;;;;;;5049551;28;20759;-50
2022/12/19 03:40:48;;;;;;;57.63;29.40;;;-1.20;99.90;;;;;;5051465;28;20212;-50
2022/12/19 03:43:16;;;;;;;60.60;28.67;;;-1.20;99.90;;;;;;5050549;28;20609;-50
2022/12/19 03:45:50;;;;;;;60.03;29.23;;;-1.20;99.90;;;;;;5051909;28;20197;-51
2022/12/19 03:48:24;;;;;;;54.00;27.97;;;-1.10;99.90;;;;;;5047605;28;20204;-50
2022/12/19 03:50:59;;;;;;;54.67;26.40;;;-1.10;99.90;;;;;;5049527;28;20270;-50
2022/12/19 03:53:36;;;;;;;57.03;27.37;;;-1.00;99.90;;;;;;5057068;28;20239;-50
2022/12/19 03:56:11;;;;;;;61.63;30.83;;;-1.00;99.90;;;;;;5049377;28;20204;-50
2022/12/19 03:58:42;;;;;;;50.60;24.30;;;-1.00;99.90;;;;;;5047363;28;20710;-50
2022/12/19 04:01:10;;;;;;;51.83;27.73;;;-1.00;99.90;;;;;;5048745;28;20203;-50
2022/12/19 04:03:38;;;;;;;62.73;30.87;;;-1.00;99.90;;;;;;5050090;28;20228;-50
2022/12/19 04:06:06;;;;;;;54.30;27.00;;;-1.00;99.90;;;;;;5048064;28;20433;-50
2022/12/19 04:08:35;;;;;;;55.50;27.83;;;-1.00;99.90;;;;;;5051229;28;20743;-51
2022/12/19 04:11:06;;;;;;;50.97;26.03;;;-0.90;99.90;;;;;;5051696;28;20252;-50
2022/12/19 04:13:37;;;;;;;56.70;28.60;;;-1.00;99.90;;;;;;5047419;28;20230;-50
2022/12/19 04:16:13;;;;;;;48.97;26.67;;;-0.90;99.90;;;;;;5051211;28;20208;-50
2022/12/19 04:18:46;;;;;;;52.47;25.77;;;-0.90;99.90;;;;;;5053042;28;20203;-49
2022/12/19 04:21:21;;;;;;;49.80;27.17;;;-0.90;99.90;;;;;;5058090;28;20268;-50
2022/12/19 04:23:55;;;;;;;56.40;28.20;;;-0.90;99.90;;;;;;5062722;28;20235;-49
2022/12/19 04:26:24;;;;;;;63.40;28.00;;;-0.80;99.90;;;;;;5052919;28;20204;-49
2022/12/19 04:28:54;;;;;;;54.10;26.77;;;-0.80;99.90;;;;;;5050063;28;20201;-50
2022/12/19 04:31:22;;;;;;;55.67;27.23;;;-0.80;99.90;;;;;;5053238;28;20252;-51
2022/12/19 04:33:51;;;;;;;44.10;24.60;;;-0.80;99.90;;;;;;5049011;28;20228;-51
2022/12/19 04:36:18;;;;;;;49.50;26.17;;;-0.90;99.90;;;;;;5049473;28;20344;-51
2022/12/19 04:38:45;;;;;;;46.53;26.30;;;-0.90;99.90;;;;;;5044580;28;20676;-50
2022/12/19 04:41:12;;;;;;;53.57;27.10;;;-0.80;99.90;;;;;;5050412;28;20639;-49
2022/12/19 04:43:39;;;;;;;45.83;25.23;;;-0.80;99.90;;;;;;5050402;28;20223;-51
2022/12/19 04:46:06;;;;;;;52.70;26.23;;;-0.80;99.90;;;;;;5057901;28;20194;-51
2022/12/19 04:48:35;;;;;;;50.00;26.00;;;-0.80;99.90;;;;;;5048935;28;20362;-51
2022/12/19 04:51:04;;;;;;;54.17;25.87;;;-0.80;99.90;;;;;;5034344;28;20303;-49
2022/12/19 04:53:32;;;;;;;57.17;27.73;;;-0.80;99.90;;;;;;5048631;28;20299;-50
2022/12/19 04:56:04;;;;;;;51.03;27.03;;;-0.70;99.90;;;;;;5050759;28;20203;-51
2022/12/19 04:58:32;;;;;;;46.73;23.93;;;-0.70;99.90;;;;;;5050077;28;20199;-50
2022/12/19 05:01:01;;;;;;;51.63;27.27;;;-0.80;99.90;;;;;;5050145;28;20579;-51
2022/12/19 05:03:28;;;;;;;54.23;25.90;;;-0.80;99.90;;;;;;5048645;28;20305;-50
2022/12/19 05:06:06;;;;;;;54.87;25.77;;;-0.80;99.90;;;;;;5045656;28;20291;-51
2022/12/19 05:08:33;;;;;;;56.23;27.43;;;-0.70;99.90;;;;;;5050321;28;20198;-51
2022/12/19 05:11:01;;;;;;;47.07;24.37;;;-0.70;99.90;;;;;;5050897;28;20202;-50
2022/12/19 05:13:29;;;;;;;48.93;25.47;;;-0.70;99.90;;;;;;5049933;28;20227;-50
2022/12/19 05:15:57;;;;;;;47.13;27.13;;;-0.70;99.90;;;;;;5048740;28;20207;-51
2022/12/19 05:18:24;;;;;;;50.67;26.10;;;-0.60;99.90;;;;;;5051150;28;20277;-51
2022/12/19 05:20:51;;;;;;;43.57;24.37;;;-0.60;99.90;;;;;;5049379;28;20292;-51
2022/12/19 05:23:21;;;;;;;49.77;25.93;;;-0.60;99.90;;;;;;5055540;28;20280;-50
2022/12/19 05:25:48;;;;;;;55.53;26.57;;;-0.60;99.90;;;;;;5048986;28;20214;-50
2022/12/19 05:28:15;;;;;;;50.13;27.03;;;-0.60;99.90;;;;;;5048526;28;20740;-50
2022/12/19 05:30:43;;;;;;;45.20;24.50;;;-0.60;99.90;;;;;;5048966;28;20204;-51
2022/12/19 05:33:11;;;;;;;51.07;25.37;;;-0.60;99.90;;;;;;5050011;28;20220;-51
2022/12/19 05:35:38;;;;;;;46.67;24.60;;;-0.50;99.90;;;;;;5048824;28;20290;-50
2022/12/19 05:38:05;;;;;;;44.50;24.23;;;-0.50;99.90;;;;;;5050090;28;20201;-51
2022/12/19 05:40:33;;;;;;;46.70;25.30;;;-0.50;99.90;;;;;;5050684;28;20649;-50
2022/12/19 05:43:01;;;;;;;50.40;27.50;;;-0.40;99.90;;;;;;5053896;28;20208;-51
2022/12/19 05:45:27;;;;;;;53.33;25.87;;;-0.40;99.90;;;;;;5053847;28;20560;-50
2022/12/19 05:47:54;;;;;;;40.90;24.00;;;-0.40;99.90;;;;;;5053291;28;20569;-50
2022/12/19 05:50:21;;;;;;;48.80;25.20;;;-0.30;99.90;;;;;;5054062;28;20627;-50
2022/12/19 05:52:48;;;;;;;44.80;24.30;;;-0.30;99.90;;;;;;5053251;28;20288;-51
2022/12/19 05:55:16;;;;;;;46.83;25.33;;;-0.30;99.90;;;;;;5054151;28;20194;-50
2022/12/19 05:57:44;;;;;;;47.27;25.30;;;-0.20;99.90;;;;;;5048619;28;20247;-50
2022/12/19 06:00:13;;;;;;;46.20;26.10;;;-0.10;99.90;;;;;;5055167;28;20273;-50
2022/12/19 06:02:40;;;;;;;47.00;26.10;;;0.00;99.90;;;;;;5055833;28;20225;-50
2022/12/19 06:05:08;;;;;;;52.63;25.37;;;-0.10;99.90;;;;;;5073675;28;20205;-51
2022/12/19 06:07:35;;;;;;;52.27;26.00;;;-0.10;99.90;;;;;;5073319;28;20306;-50
2022/12/19 06:10:02;;;;;;;48.53;26.83;;;-0.10;99.90;;;;;;5073652;28;20581;-49
2022/12/19 06:12:29;;;;;;;44.03;25.27;;;-0.10;99.90;;;;;;5070129;28;20707;-50
2022/12/19 06:14:57;;;;;;;55.87;25.90;;;-0.10;99.90;;;;;;5051625;28;20328;-50
2022/12/19 06:17:25;;;;;;;49.40;27.10;;;-0.20;99.90;;;;;;5053924;28;20671;-50
2022/12/19 06:19:52;;;;;;;47.93;26.87;;;-0.20;99.90;;;;;;5053110;28;20264;-50
2022/12/19 06:22:19;;;;;;;50.20;26.73;;;-0.20;99.90;;;;;;5053242;28;20234;-50
2022/12/19 06:24:46;;;;;;;51.67;25.23;;;-0.20;99.90;;;;;;5053354;28;20199;-50
2022/12/19 06:27:13;;;;;;;40.30;22.23;;;-0.20;99.90;;;;;;5052289;28;20201;-50
2022/12/19 06:29:40;;;;;;;44.00;22.23;;;-0.20;99.90;;;;;;5052215;28;20647;-50
2022/12/19 06:32:08;;;;;;;47.93;24.57;;;-0.20;99.90;;;;;;5052389;28;20240;-50
2022/12/19 06:34:35;;;;;;;49.43;27.60;;;-0.20;99.90;;;;;;5052871;28;20260;-51
2022/12/19 06:37:02;;;;;;;53.07;26.13;;;-0.20;99.90;;;;;;5052763;28;20249;-50
2022/12/19 06:39:29;;;;;;;50.13;25.50;;;-0.20;99.90;;;;;;5052911;28;20231;-50
2022/12/19 06:44:40;;;;;;;47.37;24.53;;;-0.20;99.90;;;;;;5052909;28;20222;-50
2022/12/19 06:47:09;;;;;;;48.17;26.60;;;-0.20;99.90;;;;;;5051537;28;20589;-51
2022/12/19 06:49:36;;;;;;;47.80;25.67;;;-0.20;99.90;;;;;;5033015;28;20206;-51
2022/12/19 06:52:04;;;;;;;41.93;24.13;;;-0.20;99.90;;;;;;5040432;28;20233;-50
2022/12/19 06:54:31;;;;;;;44.80;24.17;;;-0.20;99.90;;;;;;5052450;28;20231;-51
2022/12/19 06:56:58;;;;;;;47.67;25.17;;;-0.10;99.90;;;;;;5051087;28;20251;-50
2022/12/19 06:59:25;;;;;;;45.00;26.07;;;-0.10;99.90;;;;;;5050102;28;20204;-50
2022/12/19 07:02:00;;;;;;;51.30;26.33;;;-0.10;99.90;;;;;;5049716;28;20232;-51
2022/12/19 07:04:32;;;;;;;46.37;23.87;;;0.00;99.90;;;;;;5045842;28;20671;-49
2022/12/19 07:07:00;;;;;;;47.67;24.07;;;0.10;99.90;;;;;;5052215;28;20263;-50
2022/12/19 07:09:30;;;;;;;49.93;26.83;;;0.10;99.90;;;;;;5048827;28;20582;-49
2022/12/19 07:11:57;;;;;;;46.50;24.43;;;0.10;99.90;;;;;;5043736;28;20214;-50
2022/12/19 07:14:24;;;;;;;46.00;25.93;;;0.20;99.90;;;;;;5051653;28;20231;-50
2022/12/19 07:16:55;;;;;;;43.47;24.30;;;0.20;99.90;;;;;;5044741;28;20210;-49
2022/12/19 07:19:23;;;;;;;39.87;23.93;;;0.10;99.90;;;;;;5050408;28;20200;-51
2022/12/19 07:21:55;;;;;;;43.60;24.23;;;0.20;99.90;;;;;;5044867;28;20235;-50
2022/12/19 07:24:22;;;;;;;45.97;23.53;;;0.30;99.90;;;;;;5051848;28;20573;-49
2022/12/19 07:26:50;;;;;;;44.17;24.03;;;0.30;99.90;;;;;;5051518;28;20245;-49
2022/12/19 07:29:17;;;;;;;41.20;22.50;;;0.30;99.90;;;;;;5051833;28;20658;-49
2022/12/19 07:31:44;;;;;;;40.37;23.50;;;0.30;99.90;;;;;;5051868;28;20622;-50
2022/12/19 07:34:11;;;;;;;45.03;23.87;;;0.30;99.90;;;;;;5051701;28;20226;-50
2022/12/19 07:36:39;;;;;;;45.60;24.37;;;0.30;99.90;;;;;;5051246;28;20203;-50
2022/12/19 07:39:08;;;;;;;45.90;24.70;;;0.40;99.90;;;;;;5056403;28;20208;-50
2022/12/19 07:41:37;;;;;;;50.20;25.10;;;0.30;99.90;;;;;;5071703;28;20212;-51
2022/12/19 07:44:04;;;;;;;51.10;24.57;;;0.40;99.90;;;;;;5071797;28;20230;-50
2022/12/19 07:46:31;;;;;;;46.17;25.27;;;0.50;99.90;;;;;;5058607;28;20640;-49
2022/12/19 07:48:58;;;;;;;40.90;22.27;;;0.60;99.90;;;;;;5052986;28;20281;-50
2022/12/19 07:51:25;;;;;;;36.70;21.07;;;0.60;99.90;;;;;;5052567;28;20616;-51
2022/12/19 07:53:52;;;;;;;39.10;21.33;;;0.60;99.90;;;;;;5048544;28;20222;-50
2022/12/19 07:56:21;;;;;;;45.37;24.17;;;0.60;99.90;;;;;;5040299;28;20210;-49
2022/12/19 07:58:48;;;;;;;42.70;23.93;;;0.50;99.90;;;;;;5031486;28;20207;-49
2022/12/19 08:01:15;;;;;;;43.27;24.10;;;0.50;99.90;;;;;;5031332;28;20263;-49
2022/12/19 08:03:42;;;;;;;38.63;22.20;;;0.50;99.90;;;;;;5030784;28;20217;-49
2022/12/19 08:06:10;;;;;;;41.73;23.47;;;0.50;99.90;;;;;;5036525;28;20202;-51
2022/12/19 08:08:37;;;;;;;43.07;23.83;;;0.50;99.90;;;;;;5051149;28;20200;-51
2022/12/19 08:11:09;;;;;;;45.07;24.30;;;0.60;99.90;;;;;;5058811;28;20225;-51
2022/12/19 08:13:37;;;;;;;47.80;23.87;;;0.60;99.90;;;;;;5036460;28;20226;-50
2022/12/19 08:16:05;;;;;;;38.90;22.80;;;0.60;99.90;;;;;;5054943;28;20204;-51
2022/12/19 08:18:32;;;;;;;40.20;22.73;;;0.70;99.90;;;;;;5070875;28;20222;-51
2022/12/19 08:20:59;;;;;;;43.50;24.87;;;0.80;99.90;;;;;;5070821;28;20202;-51
2022/12/19 08:23:26;;;;;;;40.50;23.73;;;0.80;99.90;;;;;;5070665;28;20229;-52
2022/12/19 08:26:00;;;;;;;39.67;22.27;;;0.80;99.90;;;;;;5073310;22;20206;-53
2022/12/19 08:28:28;;;;;;;38.03;21.13;;;0.80;99.90;;;;;;5048204;28;20212;-51
2022/12/19 08:30:56;;;;;;;34.20;19.90;;;0.90;99.90;;;;;;5038648;28;20665;-52
2022/12/19 08:33:23;;;;;;;39.73;23.07;;;1.00;99.90;;;;;;5044678;28;20218;-51
2022/12/19 08:35:50;;;;;;;39.97;21.37;;;1.10;99.90;;;;;;5041969;28;20231;-52
2022/12/19 08:38:17;;;;;;;40.03;22.80;;;1.10;99.90;;;;;;5028577;28;20217;-55
2022/12/19 08:40:51;;;;;;;37.60;20.23;;;1.20;99.90;;;;;;5028389;28;20211;-51
2022/12/19 08:43:18;;;;;;;35.30;20.83;;;1.30;99.90;;;;;;5030793;28;20210;-51
2022/12/19 08:45:45;;;;;;;37.63;20.80;;;1.30;99.90;;;;;;5029535;28;20203;-51
2022/12/19 08:48:13;;;;;;;33.37;19.60;;;1.40;99.90;;;;;;5024534;28;20663;-53
2022/12/19 08:50:41;;;;;;;38.90;21.87;;;1.60;99.90;;;;;;5027337;28;20199;-54
2022/12/19 08:53:08;;;;;;;34.27;20.07;;;1.60;99.90;;;;;;5028917;28;20683;-50
2022/12/19 08:55:36;;;;;;;35.13;20.83;;;1.70;99.90;;;;;;5028933;28;20224;-54
2022/12/19 08:58:03;;;;;;;31.80;18.73;;;1.70;99.90;;;;;;5024168;28;20196;-53
2022/12/19 09:00:30;;;;;;;27.20;17.80;;;1.80;99.90;;;;;;5030896;28;20215;-51
2022/12/19 09:02:57;;;;;;;33.20;19.13;;;1.80;99.90;;;;;;5024964;28;20210;-51
2022/12/19 09:05:25;;;;;;;37.47;20.17;;;1.90;99.90;;;;;;5027268;28;20195;-51
2022/12/19 09:07:52;;;;;;;35.35;21.80;;;1.90;99.90;;;;;;5022900;28;20468;-51
2022/12/19 09:10:20;;;;;;;31.00;20.10;;;1.90;99.90;;;;;;5027359;28;20868;-52
2022/12/19 09:12:47;;;;;;;30.23;18.23;;;2.00;99.90;;;;;;5030123;28;20204;-52
2022/12/19 09:15:14;;;;;;;33.77;21.30;;;2.10;99.90;;;;;;5027348;28;20225;-51
2022/12/19 09:17:41;;;;;;;40.97;23.77;;;2.30;99.90;;;;;;5034274;28;20245;-52
2022/12/19 09:20:10;;;;;;;37.10;22.17;;;2.40;99.90;;;;;;5032091;28;20207;-51
2022/12/19 09:22:38;;;;;;;38.77;22.87;;;2.50;99.90;;;;;;5030670;28;20228;-51
2022/12/19 09:25:06;;;;;;;42.80;24.73;;;2.70;99.90;;;;;;5032557;28;20196;-53
2022/12/19 09:27:34;;;;;;;38.53;21.83;;;2.90;99.90;;;;;;5028790;28;20234;-51
2022/12/19 09:30:01;;;;;;;39.73;23.77;;;3.00;99.90;;;;;;5035107;28;20204;-51
2022/12/19 09:32:29;;;;;;;38.67;24.27;;;3.00;99.90;;;;;;5033564;28;20218;-49
2022/12/19 09:34:56;;;;;;;41.07;25.07;;;2.90;99.90;;;;;;5034998;28;20227;-48
2022/12/19 09:37:23;;;;;;;43.63;25.20;;;2.90;99.90;;;;;;5022642;28;20224;-50
2022/12/19 09:39:51;;;;;;;41.97;24.67;;;2.90;99.90;;;;;;5041100;28;20274;-49
2022/12/19 09:42:48;;;;;;;44.03;24.03;;;2.80;99.90;;;;;;5041188;28;20667;-49
2022/12/19 09:45:31;;;;;;;38.33;25.20;;;2.70;99.90;;;;;;5027247;28;20625;-51
2022/12/19 09:47:59;;;;;;;40.90;26.13;;;2.70;99.90;;;;;;5027039;28;20230;-51
2022/12/19 09:50:42;;;;;;;49.73;27.77;;;2.80;99.90;;;;;;5038394;28;20226;-49
2022/12/19 09:53:18;;;;;;;49.23;28.00;;;3.00;99.90;;;;;;5036891;28;20200;-49
2022/12/19 09:55:47;;;;;;;49.23;27.50;;;3.20;99.90;;;;;;5035096;28;20743;-50
2022/12/19 09:58:22;;;;;;;42.27;25.53;;;3.30;99.90;;;;;;5035396;28;20220;-48
2022/12/19 10:00:53;;;;;;;43.20;26.87;;;3.40;99.90;;;;;;5034660;28;20215;-49
2022/12/19 10:03:24;;;;;;;41.67;25.83;;;3.50;99.90;;;;;;5040794;28;20199;-49
2022/12/19 10:05:54;;;;;;;46.90;26.60;;;3.50;99.90;;;;;;5036498;28;20213;-49
2022/12/19 10:08:30;;;;;;;49.63;27.90;;;3.40;99.90;;;;;;5032596;28;20206;-49
2022/12/19 10:11:07;;;;;;;43.60;27.17;;;3.40;99.90;;;;;;5033428;28;20198;-49
2022/12/19 10:13:56;;;;;;;41.63;24.47;;;3.60;99.90;;;;;;5036406;28;20204;-49
2022/12/19 10:16:35;;;;;;;43.80;24.53;;;3.70;99.90;;;;;;5034740;28;20351;-48
2022/12/19 10:19:06;;;;;;;43.23;25.37;;;3.80;99.90;;;;;;5032921;28;20196;-48
2022/12/19 10:21:39;;;;;;;43.87;24.57;;;3.80;99.90;;;;;;5033269;28;20202;-49
2022/12/19 10:24:26;;;;;;;44.03;26.53;;;3.90;99.90;;;;;;5035847;28;20207;-49
2022/12/19 10:27:00;;;;;;;49.17;27.27;;;4.10;99.90;;;;;;5042640;28;20236;-49
2022/12/19 10:29:48;;;;;;;43.13;27.27;;;4.20;99.90;;;;;;5033344;28;20201;-49
2022/12/19 10:32:22;;;;;;;49.53;29.00;;;4.30;99.90;;;;;;5031553;28;20199;-49
2022/12/19 10:34:51;;;;;;;49.93;27.73;;;4.40;99.90;;;;;;5031731;28;20227;-49
2022/12/19 10:37:22;;;;;;;44.27;27.70;;;4.40;99.90;;;;;;5034888;28;20224;-49
2022/12/19 10:39:58;;;;;;;52.07;29.73;;;4.40;99.90;;;;;;5032099;28;20679;-49
2022/12/19 10:42:40;;;;;;;48.47;27.67;;;4.30;99.90;;;;;;5028392;28;20259;-48
2022/12/19 10:45:14;;;;;;;48.37;27.70;;;4.20;99.90;;;;;;5031332;28;20736;-50
2022/12/19 10:47:42;;;;;;;50.97;28.50;;;4.20;99.90;;;;;;5033449;28;20311;-50
2022/12/19 10:50:12;;;;;;;47.63;27.53;;;4.20;99.90;;;;;;5032624;28;20296;-49
2022/12/19 10:52:52;;;;;;;46.23;28.37;;;4.30;99.90;;;;;;5037413;28;20208;-49
2022/12/19 10:55:33;;;;;;;51.73;28.27;;;4.20;99.90;;;;;;5035497;28;20221;-49
2022/12/19 10:58:22;;;;;;;43.83;25.13;;;4.20;99.90;;;;;;5029868;28;20302;-49
2022/12/19 11:01:16;;;;;;;54.47;30.00;;;4.20;99.90;;;;;;5034312;28;20210;-49
2022/12/19 11:03:45;;;;;;;55.83;31.60;;;4.20;99.90;;;;;;5038817;28;20211;-50
2022/12/19 11:06:44;;;;;;;54.30;31.13;;;4.30;99.90;;;;;;5033011;28;20220;-49
2022/12/19 11:09:28;;;;;;;52.90;30.23;;;4.40;99.90;;;;;;5026438;28;20299;-49
2022/12/19 11:12:00;;;;;;;53.80;29.73;;;4.40;99.90;;;;;;5038167;28;20201;-49
2022/12/19 11:14:30;;;;;;;48.43;28.80;;;4.40;99.90;;;;;;5032354;28;20201;-50
2022/12/19 11:16:58;;;;;;;51.07;30.90;;;4.40;99.90;;;;;;5016209;28;20315;-49
2022/12/19 11:19:31;;;;;;;49.47;29.27;;;4.20;99.90;;;;;;5032317;28;20208;-49
2022/12/19 11:22:02;;;;;;;46.90;29.73;;;4.20;99.90;;;;;;5025528;28;20741;-50
2022/12/19 11:24:36;;;;;;;45.77;29.30;;;4.30;99.90;;;;;;5036617;28;20210;-49
2022/12/19 11:27:03;;;;;;;50.53;28.83;;;4.30;99.90;;;;;;5042352;28;20277;-49
2022/12/19 11:29:46;;;;;;;54.47;32.27;;;4.10;99.90;;;;;;5051928;28;20264;-49
2022/12/19 11:32:29;;;;;;;55.90;31.53;;;4.20;99.90;;;;;;5040718;28;21290;-49
2022/12/19 11:35:01;;;;;;;52.27;30.37;;;4.30;99.90;;;;;;5051341;28;20319;-50
2022/12/19 11:37:39;;;;;;;56.03;31.77;;;4.40;99.90;;;;;;5049918;28;20792;-49
2022/12/19 11:40:15;;;;;;;47.13;30.83;;;4.50;99.90;;;;;;5050124;28;20212;-49
2022/12/19 11:42:50;;;;;;;46.07;28.10;;;4.60;99.90;;;;;;5049112;28;20206;-49
2022/12/19 11:45:28;;;;;;;49.90;30.80;;;4.60;99.90;;;;;;5050965;28;20677;-49
2022/12/19 11:48:01;;;;;;;51.30;28.17;;;4.50;99.90;;;;;;5051068;28;20220;-49
2022/12/19 11:50:31;;;;;;;49.00;28.00;;;4.50;99.90;;;;;;5049935;28;20958;-48
2022/12/19 11:53:05;;;;;;;56.70;30.10;;;4.60;99.90;;;;;;5045148;28;20200;-48
2022/12/19 11:55:40;;;;;;;45.60;27.80;;;4.70;99.90;;;;;;5044992;28;20227;-49
2022/12/19 11:58:10;;;;;;;49.23;28.67;;;4.70;99.90;;;;;;5049545;28;20210;-49
2022/12/19 12:00:46;;;;;;;53.57;30.77;;;4.70;99.90;;;;;;5048737;28;20696;-49
2022/12/19 12:03:41;;;;;;;64.07;29.90;;;4.70;99.90;;;;;;5051213;28;20209;-50
2022/12/19 12:06:12;;;;;;;54.97;31.60;;;4.80;99.90;;;;;;5044397;28;20219;-49
2022/12/19 12:08:54;;;;;;;54.87;32.77;;;4.70;99.90;;;;;;5050893;28;20292;-50
2022/12/19 12:11:26;;;;;;;53.33;31.03;;;4.70;99.90;;;;;;5050935;28;20203;-50
2022/12/19 12:14:13;;;;;;;58.67;29.53;;;4.70;99.90;;;;;;5050293;28;20205;-50
2022/12/19 12:17:00;;;;;;;56.93;33.33;;;4.80;99.90;;;;;;5047887;28;20303;-49
2022/12/19 12:19:43;;;;;;;53.80;31.73;;;4.70;99.90;;;;;;5051902;28;20300;-49
2022/12/19 12:22:26;;;;;;;51.70;31.83;;;4.60;99.90;;;;;;5046509;28;20216;-49
2022/12/19 12:25:03;;;;;;;50.77;30.77;;;4.50;99.90;;;;;;5047418;28;20207;-48
2022/12/19 12:27:42;;;;;;;50.93;31.97;;;4.40;99.90;;;;;;5026058;28;20232;-49
2022/12/19 12:30:12;;;;;;;49.47;31.30;;;4.50;99.90;;;;;;5022924;28;20305;-49
2022/12/19 12:32:59;;;;;;;55.33;32.57;;;4.50;99.90;;;;;;5029574;28;20612;-50
2022/12/19 12:35:34;;;;;;;48.83;31.10;;;4.40;99.90;;;;;;5031610;28;20228;-50
2022/12/19 12:38:20;;;;;;;45.20;29.83;;;4.40;99.90;;;;;;5029733;28;20248;-48
2022/12/19 12:41:02;;;;;;;48.70;30.37;;;4.50;99.90;;;;;;5027105;28;20253;-49
2022/12/19 12:43:58;;;;;;;48.97;31.00;;;4.50;99.90;;;;;;5029385;28;20205;-50
2022/12/19 12:46:28;;;;;;;58.30;31.73;;;4.50;99.90;;;;;;5031187;28;20215;-49
2022/12/19 12:49:02;;;;;;;56.53;34.30;;;4.40;99.90;;;;;;5031030;28;20598;-49
2022/12/19 12:51:31;;;;;;;47.47;29.17;;;4.20;99.90;;;;;;5030696;28;20233;-50
2022/12/19 12:54:03;;;;;;;54.17;30.33;;;4.10;99.90;;;;;;5027507;28;20200;-49